Aegaeo — SXYY — position and weather

sailwx.info

Track history (hours):
 
Tides and Currents Weather Stations Pressure Air Temp Water Temp Dewpoint Dewpoint Depression Visibility Wind Speed Wind Dir Waves Ship Positions

Oceanographic research ship Aegaeo (Greece)

Detailed information on ship capabilities available from University of Delaware's Ocean Information Center.

Last reported at 2020-Mar-12 07:30 UTC. Time now 2020-Apr-03 08:12 UTC.
Position N 38°01' E 023°34'.
Warning: this ship's position is 22 days out of date.

Length 61.5 m; beam 9.6 m; draft 2.9 m.

Type: Ship (hazmat cat A). MMSI: 237529000.

Date/timePositionNaut miles runAvg speedWind from/ knotsBaromVisibWave heightAir tempDewpointWater temp
2020-Mar-12 07:30N 38°01' E 023°34'5 5.5
2020-Mar-12 06:31N 37°60' E 023°27'2 3.6
2020-Mar-12 06:01N 37°58' E 023°26'1 1.9
2020-Mar-12 05:30N 37°58' E 023°25'3 1.7
2020-Mar-12 04:01N 37°56' E 023°28'0 0.0
2020-Mar-12 02:31N 37°56' E 023°28'0 0.0
2020-Mar-12 01:01N 37°56' E 023°28'0 0.0
2020-Mar-11 23:30N 37°56' E 023°28'0 0.0
2020-Mar-11 23:00N 37°56' E 023°28'3 2.9
2020-Mar-11 22:00N 37°56' E 023°24'19 9.4
2020-Mar-11 20:00N 37°39' E 023°15'1 1.3
2020-Mar-11 19:00N 37°39' E 023°17'611.0
2020-Mar-11 18:30N 37°39' E 023°24'1711.3
2020-Mar-11 16:59N 37°29' E 023°42'95 8.7
2020-Mar-11 06:00N 37°06' E 025°38'3511.3
2020-Mar-11 02:56N 37°40' E 025°27'143 5.8
2020-Mar-10 02:09N 40°02' E 025°03'1311.1
2020-Mar-10 00:59N 40°13' E 025°13'1711.4
2020-Mar-09 23:32N 40°27' E 025°24'24 4.6
2020-Mar-09 18:20N 40°50' E 025°31'411.1
2020-Mar-09 17:58N 40°51' E 025°26'17 7.1
2020-Mar-09 15:30N 40°57' E 025°04'611.2
2020-Mar-09 15:00N 40°54' E 024°58'20 6.7
2020-Mar-09 12:00N 40°57' E 024°32'6 4.0
2020-Mar-09 10:30N 40°56' E 024°24'15 7.3
2020-Mar-09 08:30N 40°44' E 024°12'22 5.8
2020-Mar-09 04:45N 40°29' E 023°51'13 5.7
2020-Mar-09 02:26N 40°25' E 024°07'19 4.9
2020-Mar-08 22:38N 40°06' E 024°10'710.5
2020-Mar-08 22:00N 40°06' E 024°01'1 1.2
2020-Mar-08 21:30N 40°06' E 024°00'  
2020-Mar-06 09:30N 37°44' E 023°48'611.2
2020-Mar-06 09:00N 37°48' E 023°43'511.0
2020-Mar-06 08:31N 37°52' E 023°38'4 2.7
2020-Mar-06 07:01N 37°55' E 023°35'1 1.8
2020-Mar-06 06:31N 37°56' E 023°36'2 2.0
2020-Mar-06 05:31N 37°56' E 023°38'  
2020-Mar-02 10:30N 37°56' E 023°38'  
Track history (hours):
 
Tides and Currents Weather Stations Pressure Air Temp Water Temp Dewpoint Dewpoint Depression Visibility Wind Speed Wind Dir Waves Ship Positions

Oceanographic research ship Aegaeo (Greece)

Detailed information on ship capabilities available from University of Delaware's Ocean Information Center.

Last reported at 2020-Mar-12 07:30 UTC. Time now 2020-Apr-03 08:12 UTC.
Position N 38°01' E 023°34'.
Warning: this ship's position is 22 days out of date.

Length 61.5 m; beam 9.6 m; draft 2.9 m.

Type: Ship (hazmat cat A). MMSI: 237529000.

Date/timePositionNaut miles runAvg speedWind from/ knotsBaromVisibWave heightAir tempDewpointWater temp
2020-Mar-12 07:30N 38°01' E 023°34'5 5.5
2020-Mar-12 06:31N 37°60' E 023°27'2 3.6
2020-Mar-12 06:01N 37°58' E 023°26'1 1.9
2020-Mar-12 05:30N 37°58' E 023°25'3 1.7
2020-Mar-12 04:01N 37°56' E 023°28'0 0.0
2020-Mar-12 02:31N 37°56' E 023°28'0 0.0
2020-Mar-12 01:01N 37°56' E 023°28'0 0.0
2020-Mar-11 23:30N 37°56' E 023°28'0 0.0
2020-Mar-11 23:00N 37°56' E 023°28'3 2.9
2020-Mar-11 22:00N 37°56' E 023°24'19 9.4
2020-Mar-11 20:00N 37°39' E 023°15'1 1.3
2020-Mar-11 19:00N 37°39' E 023°17'611.0
2020-Mar-11 18:30N 37°39' E 023°24'1711.3
2020-Mar-11 16:59N 37°29' E 023°42'95 8.7
2020-Mar-11 06:00N 37°06' E 025°38'3511.3
2020-Mar-11 02:56N 37°40' E 025°27'143 5.8
2020-Mar-10 02:09N 40°02' E 025°03'1311.1
2020-Mar-10 00:59N 40°13' E 025°13'1711.4
2020-Mar-09 23:32N 40°27' E 025°24'24 4.6
2020-Mar-09 18:20N 40°50' E 025°31'411.1
2020-Mar-09 17:58N 40°51' E 025°26'17 7.1
2020-Mar-09 15:30N 40°57' E 025°04'611.2
2020-Mar-09 15:00N 40°54' E 024°58'20 6.7
2020-Mar-09 12:00N 40°57' E 024°32'6 4.0
2020-Mar-09 10:30N 40°56' E 024°24'15 7.3
2020-Mar-09 08:30N 40°44' E 024°12'22 5.8
2020-Mar-09 04:45N 40°29' E 023°51'13 5.7
2020-Mar-09 02:26N 40°25' E 024°07'19 4.9
2020-Mar-08 22:38N 40°06' E 024°10'710.5
2020-Mar-08 22:00N 40°06' E 024°01'1 1.2
2020-Mar-08 21:30N 40°06' E 024°00'  
2020-Mar-06 09:30N 37°44' E 023°48'611.2
2020-Mar-06 09:00N 37°48' E 023°43'511.0
2020-Mar-06 08:31N 37°52' E 023°38'4 2.7
2020-Mar-06 07:01N 37°55' E 023°35'1 1.8
2020-Mar-06 06:31N 37°56' E 023°36'2 2.0
2020-Mar-06 05:31N 37°56' E 023°38'  
2020-Mar-02 10:30N 37°56' E 023°38'  

Dump ship's entire track history